Hlavní strana
METAR-TAF:

METAR-TAF

Letiště :

Elista, Rusko

zeměpisná šířka: 46-22N, zeměpisná délka: 044-20E, výška: 150 m

Aktuální stav počasí

Zpráva byla vytvořena před 36 minutami, v 13:30 UTC
Severoseverovýchodní vítr 8 kt
Teplota 9°C
Vlhkost vzduchu 71%
Tlak 1023 hPa
Viditelnost 10 km a více
Oblačno až skoro zataženo ve výšce 2800 ft

METAR: URWI 181330Z 03004MPS 9999 BKN028 09/04 Q1023 R09/190060 NOSIG

Čas: 17:06 (14:06 UTC)

Předpověď počasí

Zpráva byla vytvořena před 3 hodinami a 6 minutami, v 11:00 UTC
Předpověď platná od 18 v 12 UTC do 18 v 21 UTC
Severní vítr 6 kt s nárazy do 16 kt
Viditelnost 10 km a více
Polojasno ve výšce 2000 ft, Cumulonimbus.
Dočasný
od 18 v 12 UTC do 18 v 21 UTC
Viditelnost: 3100 m
Polojasno ve výšce 1100 ft
Oblačno až skoro zataženo ve výšce 2000 ft, Cumulonimbus.
slabé dešťové přeháňky

TAF: URWI 181100Z 1812/1821 01003G08MPS 9999 SCT020CB TEMPO 1812/1821 3100 -SHRA SCT011 BKN020CB

Stav a předpovědi počasí z více než 4 000 letišť (zprávy METAR a TAF).

Červené a žluté tečky na mapě představují dostupné meteorologické stanice.

Když kurzor umístíte na tečku, zobrazí se název stanice.

Pak kliknutím zobrazíte stav a předpověď počasí.

Chcete-li změnit mapu, kliknutím na zelené tlačítko se znaménkem +mapu přiblížíte, kliknutím na zelené tlačítko se znaménkem – mapu oddálíte a kliknutím na zelené šipky přejdete na sousední mapy.


METAR-TAF: